sensor_id;sensor_type;location;lat;lon;timestamp;P1;durP1;ratioP1;P2;durP2;ratioP2
12980;SDS011;6555;50.468;8.480;2023-12-20T00:02:05;1.07;;;0.90;;
12980;SDS011;6555;50.468;8.480;2023-12-20T00:07:08;1.13;;;0.60;;
12980;SDS011;6555;50.468;8.480;2023-12-20T00:12:11;0.60;;;0.60;;
12980;SDS011;6555;50.468;8.480;2023-12-20T00:17:16;0.80;;;0.80;;
12980;SDS011;6555;50.468;8.480;2023-12-20T00:22:19;0.70;;;0.70;;
12980;SDS011;6555;50.468;8.480;2023-12-20T00:27:22;0.30;;;0.30;;
12980;SDS011;6555;50.468;8.480;2023-12-20T00:32:27;0.50;;;0.50;;
12980;SDS011;6555;50.468;8.480;2023-12-20T00:37:30;0.60;;;0.57;;
12980;SDS011;6555;50.468;8.480;2023-12-20T00:42:33;0.50;;;0.50;;
12980;SDS011;6555;50.468;8.480;2023-12-20T00:47:38;0.30;;;0.30;;
12980;SDS011;6555;50.468;8.480;2023-12-20T00:52:41;0.60;;;0.60;;
12980;SDS011;6555;50.468;8.480;2023-12-20T00:57:44;0.50;;;0.50;;
12980;SDS011;6555;50.468;8.480;2023-12-20T01:02:50;0.63;;;0.50;;
12980;SDS011;6555;50.468;8.480;2023-12-20T01:07:53;0.50;;;0.50;;
12980;SDS011;6555;50.468;8.480;2023-12-20T01:12:56;0.53;;;0.53;;
12980;SDS011;6555;50.468;8.480;2023-12-20T01:18:01;0.57;;;0.57;;
12980;SDS011;6555;50.468;8.480;2023-12-20T01:23:04;0.33;;;0.33;;
12980;SDS011;6555;50.468;8.480;2023-12-20T01:28:07;0.40;;;0.40;;
12980;SDS011;6555;50.468;8.480;2023-12-20T01:33:12;0.60;;;0.60;;
12980;SDS011;6555;50.468;8.480;2023-12-20T01:38:15;0.47;;;0.47;;
12980;SDS011;6555;50.468;8.480;2023-12-20T01:43:20;0.30;;;0.30;;
12980;SDS011;6555;50.468;8.480;2023-12-20T01:48:27;0.60;;;0.60;;
12980;SDS011;6555;50.468;8.480;2023-12-20T01:53:30;0.47;;;0.47;;
12980;SDS011;6555;50.468;8.480;2023-12-20T01:58:34;0.67;;;0.67;;
12980;SDS011;6555;50.468;8.480;2023-12-20T02:03:42;0.67;;;0.60;;
12980;SDS011;6555;50.468;8.480;2023-12-20T02:08:46;0.60;;;0.57;;
12980;SDS011;6555;50.468;8.480;2023-12-20T02:13:49;0.33;;;0.33;;
12980;SDS011;6555;50.468;8.480;2023-12-20T02:18:53;0.50;;;0.50;;
12980;SDS011;6555;50.468;8.480;2023-12-20T02:23:58;0.60;;;0.60;;
12980;SDS011;6555;50.468;8.480;2023-12-20T02:29:01;0.53;;;0.53;;
12980;SDS011;6555;50.468;8.480;2023-12-20T02:34:05;0.47;;;0.47;;
12980;SDS011;6555;50.468;8.480;2023-12-20T02:39:09;0.90;;;0.67;;
12980;SDS011;6555;50.468;8.480;2023-12-20T02:44:12;0.83;;;0.83;;
12980;SDS011;6555;50.468;8.480;2023-12-20T02:49:15;0.63;;;0.63;;
12980;SDS011;6555;50.468;8.480;2023-12-20T02:54:20;0.87;;;0.80;;
12980;SDS011;6555;50.468;8.480;2023-12-20T02:59:23;5.67;;;0.70;;
12980;SDS011;6555;50.468;8.480;2023-12-20T03:04:26;0.80;;;0.80;;
12980;SDS011;6555;50.468;8.480;2023-12-20T03:09:31;0.63;;;0.63;;
12980;SDS011;6555;50.468;8.480;2023-12-20T03:14:54;0.60;;;0.60;;
12980;SDS011;6555;50.468;8.480;2023-12-20T03:19:57;0.83;;;0.77;;
12980;SDS011;6555;50.468;8.480;2023-12-20T03:25:01;0.77;;;0.77;;
12980;SDS011;6555;50.468;8.480;2023-12-20T03:30:05;0.67;;;0.67;;
12980;SDS011;6555;50.468;8.480;2023-12-20T03:35:09;1.00;;;0.90;;
12980;SDS011;6555;50.468;8.480;2023-12-20T03:40:14;0.70;;;0.70;;
12980;SDS011;6555;50.468;8.480;2023-12-20T03:45:17;0.90;;;0.87;;
12980;SDS011;6555;50.468;8.480;2023-12-20T03:50:20;1.27;;;0.90;;
12980;SDS011;6555;50.468;8.480;2023-12-20T03:55:25;0.83;;;0.83;;
12980;SDS011;6555;50.468;8.480;2023-12-20T04:00:28;0.87;;;0.87;;
12980;SDS011;6555;50.468;8.480;2023-12-20T04:05:32;0.93;;;0.87;;
12980;SDS011;6555;50.468;8.480;2023-12-20T04:10:36;2.20;;;0.93;;
12980;SDS011;6555;50.468;8.480;2023-12-20T04:15:39;1.20;;;1.10;;
12980;SDS011;6555;50.468;8.480;2023-12-20T04:20:42;1.30;;;1.20;;
12980;SDS011;6555;50.468;8.480;2023-12-20T04:25:47;1.80;;;1.17;;
12980;SDS011;6555;50.468;8.480;2023-12-20T04:30:50;1.70;;;1.40;;
12980;SDS011;6555;50.468;8.480;2023-12-20T04:35:53;3.10;;;1.70;;
12980;SDS011;6555;50.468;8.480;2023-12-20T04:40:58;2.10;;;1.90;;
12980;SDS011;6555;50.468;8.480;2023-12-20T04:46:01;4.70;;;2.30;;
12980;SDS011;6555;50.468;8.480;2023-12-20T04:51:04;2.20;;;2.00;;
12980;SDS011;6555;50.468;8.480;2023-12-20T04:56:09;5.97;;;2.20;;
12980;SDS011;6555;50.468;8.480;2023-12-20T05:01:13;3.03;;;1.70;;
12980;SDS011;6555;50.468;8.480;2023-12-20T05:06:16;2.40;;;1.40;;
12980;SDS011;6555;50.468;8.480;2023-12-20T05:11:20;2.53;;;1.50;;
12980;SDS011;6555;50.468;8.480;2023-12-20T05:16:23;3.30;;;1.67;;
12980;SDS011;6555;50.468;8.480;2023-12-20T05:21:27;4.00;;;1.70;;
12980;SDS011;6555;50.468;8.480;2023-12-20T05:26:31;2.00;;;1.70;;
12980;SDS011;6555;50.468;8.480;2023-12-20T05:31:34;2.73;;;1.50;;
12980;SDS011;6555;50.468;8.480;2023-12-20T05:36:37;2.63;;;1.40;;
12980;SDS011;6555;50.468;8.480;2023-12-20T05:41:42;5.50;;;1.90;;
12980;SDS011;6555;50.468;8.480;2023-12-20T05:46:45;4.07;;;1.50;;
12980;SDS011;6555;50.468;8.480;2023-12-20T05:51:48;2.23;;;1.10;;
12980;SDS011;6555;50.468;8.480;2023-12-20T05:56:52;4.83;;;1.57;;
12980;SDS011;6555;50.468;8.480;2023-12-20T06:01:55;2.57;;;1.23;;
12980;SDS011;6555;50.468;8.480;2023-12-20T06:06:59;2.70;;;1.23;;
12980;SDS011;6555;50.468;8.480;2023-12-20T06:12:04;5.53;;;1.60;;
12980;SDS011;6555;50.468;8.480;2023-12-20T06:17:09;2.60;;;1.27;;
12980;SDS011;6555;50.468;8.480;2023-12-20T06:22:12;2.57;;;1.13;;
12980;SDS011;6555;50.468;8.480;2023-12-20T06:27:17;3.40;;;1.03;;
12980;SDS011;6555;50.468;8.480;2023-12-20T06:32:20;6.07;;;2.00;;
12980;SDS011;6555;50.468;8.480;2023-12-20T06:37:24;4.20;;;1.50;;
12980;SDS011;6555;50.468;8.480;2023-12-20T06:42:29;5.50;;;1.73;;
12980;SDS011;6555;50.468;8.480;2023-12-20T06:47:40;4.07;;;1.63;;
12980;SDS011;6555;50.468;8.480;2023-12-20T06:52:45;2.77;;;1.43;;
12980;SDS011;6555;50.468;8.480;2023-12-20T06:57:50;6.67;;;1.70;;
12980;SDS011;6555;50.468;8.480;2023-12-20T07:02:53;2.87;;;1.53;;
12980;SDS011;6555;50.468;8.480;2023-12-20T07:07:56;5.90;;;1.97;;
12980;SDS011;6555;50.468;8.480;2023-12-20T07:13:01;5.27;;;1.50;;
12980;SDS011;6555;50.468;8.480;2023-12-20T07:18:04;5.07;;;1.63;;
12980;SDS011;6555;50.468;8.480;2023-12-20T07:23:08;4.33;;;1.70;;
12980;SDS011;6555;50.468;8.480;2023-12-20T07:28:13;6.03;;;1.80;;
12980;SDS011;6555;50.468;8.480;2023-12-20T07:33:16;4.00;;;1.63;;
12980;SDS011;6555;50.468;8.480;2023-12-20T07:38:19;4.20;;;1.77;;
12980;SDS011;6555;50.468;8.480;2023-12-20T07:43:23;7.43;;;1.60;;
12980;SDS011;6555;50.468;8.480;2023-12-20T07:48:27;2.43;;;1.60;;
12980;SDS011;6555;50.468;8.480;2023-12-20T07:53:30;3.00;;;1.30;;
12980;SDS011;6555;50.468;8.480;2023-12-20T07:58:34;3.60;;;1.53;;
12980;SDS011;6555;50.468;8.480;2023-12-20T08:03:52;2.60;;;1.60;;
12980;SDS011;6555;50.468;8.480;2023-12-20T08:08:55;3.50;;;1.60;;
12980;SDS011;6555;50.468;8.480;2023-12-20T08:14:08;3.90;;;1.60;;
12980;SDS011;6555;50.468;8.480;2023-12-20T08:19:11;5.70;;;2.47;;
12980;SDS011;6555;50.468;8.480;2023-12-20T08:24:15;4.97;;;1.40;;
12980;SDS011;6555;50.468;8.480;2023-12-20T08:29:19;4.13;;;1.57;;
12980;SDS011;6555;50.468;8.480;2023-12-20T08:34:23;6.30;;;1.90;;
12980;SDS011;6555;50.468;8.480;2023-12-20T08:39:26;5.40;;;1.53;;
12980;SDS011;6555;50.468;8.480;2023-12-20T08:44:33;3.53;;;1.60;;
12980;SDS011;6555;50.468;8.480;2023-12-20T08:49:36;4.20;;;2.00;;
12980;SDS011;6555;50.468;8.480;2023-12-20T08:54:40;5.43;;;2.37;;
12980;SDS011;6555;50.468;8.480;2023-12-20T08:59:47;7.67;;;1.63;;
12980;SDS011;6555;50.468;8.480;2023-12-20T09:04:50;6.23;;;2.00;;
12980;SDS011;6555;50.468;8.480;2023-12-20T09:09:53;3.67;;;1.50;;
12980;SDS011;6555;50.468;8.480;2023-12-20T09:14:58;4.20;;;1.40;;
12980;SDS011;6555;50.468;8.480;2023-12-20T09:20:04;5.03;;;2.03;;
12980;SDS011;6555;50.468;8.480;2023-12-20T09:25:09;3.37;;;1.67;;
12980;SDS011;6555;50.468;8.480;2023-12-20T09:30:14;4.23;;;1.53;;
12980;SDS011;6555;50.468;8.480;2023-12-20T09:35:28;7.03;;;1.50;;
12980;SDS011;6555;50.468;8.480;2023-12-20T09:40:32;4.43;;;1.70;;
12980;SDS011;6555;50.468;8.480;2023-12-20T09:45:37;4.43;;;1.87;;
12980;SDS011;6555;50.468;8.480;2023-12-20T09:50:43;4.63;;;1.40;;
12980;SDS011;6555;50.468;8.480;2023-12-20T09:55:53;3.23;;;1.63;;
12980;SDS011;6555;50.468;8.480;2023-12-20T10:00:59;3.93;;;1.47;;
12980;SDS011;6555;50.468;8.480;2023-12-20T10:06:04;9.30;;;2.07;;
12980;SDS011;6555;50.468;8.480;2023-12-20T10:11:07;5.47;;;2.10;;
12980;SDS011;6555;50.468;8.480;2023-12-20T10:16:12;4.83;;;1.87;;
12980;SDS011;6555;50.468;8.480;2023-12-20T10:21:15;5.43;;;1.60;;
12980;SDS011;6555;50.468;8.480;2023-12-20T10:26:21;6.67;;;1.83;;
12980;SDS011;6555;50.468;8.480;2023-12-20T10:31:30;5.00;;;1.90;;
12980;SDS011;6555;50.468;8.480;2023-12-20T10:36:34;6.63;;;2.30;;
12980;SDS011;6555;50.468;8.480;2023-12-20T10:41:37;6.83;;;2.10;;
12980;SDS011;6555;50.468;8.480;2023-12-20T10:46:44;4.73;;;2.00;;
12980;SDS011;6555;50.468;8.480;2023-12-20T10:51:52;6.83;;;2.13;;
12980;SDS011;6555;50.468;8.480;2023-12-20T10:56:58;7.53;;;2.17;;
12980;SDS011;6555;50.468;8.480;2023-12-20T11:02:04;7.07;;;2.13;;
12980;SDS011;6555;50.468;8.480;2023-12-20T11:07:10;5.67;;;2.40;;
12980;SDS011;6555;50.468;8.480;2023-12-20T11:12:23;7.07;;;2.33;;
12980;SDS011;6555;50.468;8.480;2023-12-20T11:17:35;5.27;;;1.80;;
12980;SDS011;6555;50.468;8.480;2023-12-20T11:22:51;5.80;;;2.30;;
12980;SDS011;6555;50.468;8.480;2023-12-20T11:28:08;4.73;;;1.87;;
12980;SDS011;6555;50.468;8.480;2023-12-20T11:33:14;4.30;;;1.90;;
12980;SDS011;6555;50.468;8.480;2023-12-20T11:38:19;4.20;;;1.50;;
12980;SDS011;6555;50.468;8.480;2023-12-20T11:43:29;4.57;;;1.73;;
12980;SDS011;6555;50.468;8.480;2023-12-20T11:48:37;4.00;;;1.40;;
12980;SDS011;6555;50.468;8.480;2023-12-20T11:53:41;6.17;;;2.30;;
12980;SDS011;6555;50.468;8.480;2023-12-20T11:58:44;5.50;;;2.03;;
12980;SDS011;6555;50.468;8.480;2023-12-20T12:04:03;3.80;;;1.70;;
12980;SDS011;6555;50.468;8.480;2023-12-20T12:09:06;4.97;;;1.90;;
12980;SDS011;6555;50.468;8.480;2023-12-20T12:14:09;3.73;;;1.87;;
12980;SDS011;6555;50.468;8.480;2023-12-20T12:19:21;4.90;;;1.90;;
12980;SDS011;6555;50.468;8.480;2023-12-20T12:24:25;6.27;;;2.00;;
12980;SDS011;6555;50.468;8.480;2023-12-20T12:29:28;6.33;;;1.90;;
12980;SDS011;6555;50.468;8.480;2023-12-20T12:34:32;6.90;;;1.90;;
12980;SDS011;6555;50.468;8.480;2023-12-20T12:39:36;4.73;;;1.80;;
12980;SDS011;6555;50.468;8.480;2023-12-20T12:44:40;3.70;;;2.00;;
12980;SDS011;6555;50.468;8.480;2023-12-20T12:49:45;5.47;;;2.13;;
12980;SDS011;6555;50.468;8.480;2023-12-20T12:54:48;5.53;;;2.07;;
12980;SDS011;6555;50.468;8.480;2023-12-20T12:59:51;5.27;;;2.40;;
12980;SDS011;6555;50.468;8.480;2023-12-20T13:04:56;4.90;;;1.73;;
12980;SDS011;6555;50.468;8.480;2023-12-20T13:09:59;5.87;;;2.57;;
12980;SDS011;6555;50.468;8.480;2023-12-20T13:15:02;4.30;;;2.17;;
12980;SDS011;6555;50.468;8.480;2023-12-20T13:20:08;4.03;;;2.00;;
12980;SDS011;6555;50.468;8.480;2023-12-20T13:25:11;5.20;;;1.70;;
12980;SDS011;6555;50.468;8.480;2023-12-20T13:30:15;7.13;;;2.30;;
12980;SDS011;6555;50.468;8.480;2023-12-20T13:35:21;5.80;;;1.97;;
12980;SDS011;6555;50.468;8.480;2023-12-20T13:40:24;6.13;;;2.27;;
12980;SDS011;6555;50.468;8.480;2023-12-20T13:45:27;5.17;;;1.80;;
12980;SDS011;6555;50.468;8.480;2023-12-20T13:50:32;3.10;;;1.47;;
12980;SDS011;6555;50.468;8.480;2023-12-20T13:55:35;4.40;;;1.87;;
12980;SDS011;6555;50.468;8.480;2023-12-20T14:00:40;3.83;;;1.83;;
12980;SDS011;6555;50.468;8.480;2023-12-20T14:05:44;4.37;;;1.93;;
12980;SDS011;6555;50.468;8.480;2023-12-20T14:10:47;5.93;;;2.07;;
12980;SDS011;6555;50.468;8.480;2023-12-20T14:15:51;4.97;;;2.40;;
12980;SDS011;6555;50.468;8.480;2023-12-20T14:20:57;6.93;;;2.33;;
12980;SDS011;6555;50.468;8.480;2023-12-20T14:26:00;5.30;;;2.17;;
12980;SDS011;6555;50.468;8.480;2023-12-20T14:31:03;3.30;;;2.00;;
12980;SDS011;6555;50.468;8.480;2023-12-20T14:36:08;5.27;;;2.20;;
12980;SDS011;6555;50.468;8.480;2023-12-20T14:41:11;4.27;;;2.40;;
12980;SDS011;6555;50.468;8.480;2023-12-20T14:46:14;6.67;;;2.20;;
12980;SDS011;6555;50.468;8.480;2023-12-20T14:51:19;8.00;;;2.43;;
12980;SDS011;6555;50.468;8.480;2023-12-20T14:56:22;3.77;;;2.13;;
12980;SDS011;6555;50.468;8.480;2023-12-20T15:01:27;4.50;;;2.10;;
12980;SDS011;6555;50.468;8.480;2023-12-20T15:06:31;3.23;;;1.67;;
12980;SDS011;6555;50.468;8.480;2023-12-20T15:11:35;5.63;;;2.10;;
12980;SDS011;6555;50.468;8.480;2023-12-20T15:16:38;3.03;;;1.70;;
12980;SDS011;6555;50.468;8.480;2023-12-20T15:21:42;3.03;;;1.60;;
12980;SDS011;6555;50.468;8.480;2023-12-20T15:26:48;4.23;;;2.03;;
12980;SDS011;6555;50.468;8.480;2023-12-20T15:31:51;2.87;;;1.67;;
12980;SDS011;6555;50.468;8.480;2023-12-20T15:36:57;4.60;;;1.60;;
12980;SDS011;6555;50.468;8.480;2023-12-20T15:42:00;5.83;;;1.60;;
12980;SDS011;6555;50.468;8.480;2023-12-20T15:47:03;4.17;;;2.13;;
12980;SDS011;6555;50.468;8.480;2023-12-20T15:52:07;2.80;;;1.50;;
12980;SDS011;6555;50.468;8.480;2023-12-20T15:57:10;3.63;;;1.77;;
12980;SDS011;6555;50.468;8.480;2023-12-20T16:02:16;3.83;;;1.53;;
12980;SDS011;6555;50.468;8.480;2023-12-20T16:07:21;4.03;;;1.70;;
12980;SDS011;6555;50.468;8.480;2023-12-20T16:12:24;4.37;;;1.40;;
12980;SDS011;6555;50.468;8.480;2023-12-20T16:17:27;4.60;;;1.80;;
12980;SDS011;6555;50.468;8.480;2023-12-20T16:22:32;4.37;;;2.10;;
12980;SDS011;6555;50.468;8.480;2023-12-20T16:27:35;5.10;;;2.47;;
12980;SDS011;6555;50.468;8.480;2023-12-20T16:32:38;3.03;;;1.60;;
12980;SDS011;6555;50.468;8.480;2023-12-20T16:37:43;2.83;;;1.10;;
12980;SDS011;6555;50.468;8.480;2023-12-20T16:42:46;4.47;;;1.93;;
12980;SDS011;6555;50.468;8.480;2023-12-20T16:47:49;5.27;;;2.00;;
12980;SDS011;6555;50.468;8.480;2023-12-20T16:52:54;2.43;;;1.47;;
12980;SDS011;6555;50.468;8.480;2023-12-20T16:57:57;4.00;;;1.60;;
12980;SDS011;6555;50.468;8.480;2023-12-20T17:03:01;3.67;;;1.90;;
12980;SDS011;6555;50.468;8.480;2023-12-20T17:08:06;2.83;;;1.60;;
12980;SDS011;6555;50.468;8.480;2023-12-20T17:13:09;3.17;;;1.50;;
12980;SDS011;6555;50.468;8.480;2023-12-20T17:18:12;2.73;;;1.60;;
12980;SDS011;6555;50.468;8.480;2023-12-20T17:23:17;3.13;;;1.40;;
12980;SDS011;6555;50.468;8.480;2023-12-20T17:28:20;3.90;;;1.33;;
12980;SDS011;6555;50.468;8.480;2023-12-20T17:33:23;3.67;;;1.70;;
12980;SDS011;6555;50.468;8.480;2023-12-20T17:38:28;2.63;;;1.30;;
12980;SDS011;6555;50.468;8.480;2023-12-20T17:43:31;4.17;;;1.73;;
12980;SDS011;6555;50.468;8.480;2023-12-20T17:48:34;8.37;;;2.57;;
12980;SDS011;6555;50.468;8.480;2023-12-20T17:53:39;3.80;;;2.13;;
12980;SDS011;6555;50.468;8.480;2023-12-20T17:58:42;4.00;;;1.67;;
12980;SDS011;6555;50.468;8.480;2023-12-20T18:03:45;6.47;;;2.10;;
12980;SDS011;6555;50.468;8.480;2023-12-20T18:08:50;4.13;;;2.10;;
12980;SDS011;6555;50.468;8.480;2023-12-20T18:13:53;2.63;;;1.70;;
12980;SDS011;6555;50.468;8.480;2023-12-20T18:18:56;4.70;;;2.03;;
12980;SDS011;6555;50.468;8.480;2023-12-20T18:24:01;5.97;;;1.80;;
12980;SDS011;6555;50.468;8.480;2023-12-20T18:29:11;2.17;;;1.47;;
12980;SDS011;6555;50.468;8.480;2023-12-20T18:34:14;4.03;;;2.07;;
12980;SDS011;6555;50.468;8.480;2023-12-20T18:39:19;2.33;;;1.60;;
12980;SDS011;6555;50.468;8.480;2023-12-20T18:44:22;2.20;;;1.60;;
12980;SDS011;6555;50.468;8.480;2023-12-20T18:49:25;2.60;;;1.53;;
12980;SDS011;6555;50.468;8.480;2023-12-20T18:54:30;2.57;;;1.40;;
12980;SDS011;6555;50.468;8.480;2023-12-20T18:59:33;3.37;;;1.60;;
12980;SDS011;6555;50.468;8.480;2023-12-20T19:04:36;1.87;;;1.37;;
12980;SDS011;6555;50.468;8.480;2023-12-20T19:09:41;1.97;;;1.20;;
12980;SDS011;6555;50.468;8.480;2023-12-20T19:14:44;1.87;;;1.27;;
12980;SDS011;6555;50.468;8.480;2023-12-20T19:19:48;2.57;;;1.30;;
12980;SDS011;6555;50.468;8.480;2023-12-20T19:24:52;1.50;;;1.17;;
12980;SDS011;6555;50.468;8.480;2023-12-20T19:29:56;2.57;;;1.43;;
12980;SDS011;6555;50.468;8.480;2023-12-20T19:35:01;2.20;;;1.50;;
12980;SDS011;6555;50.468;8.480;2023-12-20T19:40:06;3.23;;;1.60;;
12980;SDS011;6555;50.468;8.480;2023-12-20T19:45:10;2.43;;;1.30;;
12980;SDS011;6555;50.468;8.480;2023-12-20T19:50:14;2.43;;;1.43;;
12980;SDS011;6555;50.468;8.480;2023-12-20T19:55:19;2.43;;;1.40;;
12980;SDS011;6555;50.468;8.480;2023-12-20T20:00:22;3.37;;;1.53;;
12980;SDS011;6555;50.468;8.480;2023-12-20T20:05:25;4.27;;;1.30;;
12980;SDS011;6555;50.468;8.480;2023-12-20T20:10:30;1.90;;;1.20;;
12980;SDS011;6555;50.468;8.480;2023-12-20T20:15:33;3.77;;;1.70;;
12980;SDS011;6555;50.468;8.480;2023-12-20T20:20:36;2.47;;;1.40;;
12980;SDS011;6555;50.468;8.480;2023-12-20T20:25:41;2.70;;;1.50;;
12980;SDS011;6555;50.468;8.480;2023-12-20T20:30:44;2.37;;;1.40;;
12980;SDS011;6555;50.468;8.480;2023-12-20T20:35:47;2.03;;;1.30;;
12980;SDS011;6555;50.468;8.480;2023-12-20T20:40:52;3.03;;;1.73;;
12980;SDS011;6555;50.468;8.480;2023-12-20T20:45:56;3.13;;;1.60;;
12980;SDS011;6555;50.468;8.480;2023-12-20T20:50:59;4.23;;;1.20;;
12980;SDS011;6555;50.468;8.480;2023-12-20T20:56:05;2.80;;;1.80;;
12980;SDS011;6555;50.468;8.480;2023-12-20T21:01:08;2.87;;;1.47;;
12980;SDS011;6555;50.468;8.480;2023-12-20T21:06:12;2.73;;;1.40;;
12980;SDS011;6555;50.468;8.480;2023-12-20T21:11:16;1.77;;;1.47;;
12980;SDS011;6555;50.468;8.480;2023-12-20T21:16:22;2.00;;;1.33;;
12980;SDS011;6555;50.468;8.480;2023-12-20T21:21:25;2.53;;;1.30;;
12980;SDS011;6555;50.468;8.480;2023-12-20T21:26:30;3.10;;;1.40;;
12980;SDS011;6555;50.468;8.480;2023-12-20T21:31:33;3.40;;;1.43;;
12980;SDS011;6555;50.468;8.480;2023-12-20T21:36:36;4.00;;;1.30;;
12980;SDS011;6555;50.468;8.480;2023-12-20T21:41:40;1.60;;;1.10;;
12980;SDS011;6555;50.468;8.480;2023-12-20T21:46:43;2.43;;;1.50;;
12980;SDS011;6555;50.468;8.480;2023-12-20T21:51:46;2.10;;;1.20;;
12980;SDS011;6555;50.468;8.480;2023-12-20T21:56:51;1.60;;;1.03;;
12980;SDS011;6555;50.468;8.480;2023-12-20T22:01:55;3.20;;;1.60;;
12980;SDS011;6555;50.468;8.480;2023-12-20T22:06:58;4.00;;;1.20;;
12980;SDS011;6555;50.468;8.480;2023-12-20T22:12:03;3.13;;;1.53;;
12980;SDS011;6555;50.468;8.480;2023-12-20T22:17:06;1.60;;;1.10;;
12980;SDS011;6555;50.468;8.480;2023-12-20T22:22:10;2.30;;;1.20;;
12980;SDS011;6555;50.468;8.480;2023-12-20T22:27:14;3.43;;;1.10;;
12980;SDS011;6555;50.468;8.480;2023-12-20T22:32:17;1.83;;;1.37;;
12980;SDS011;6555;50.468;8.480;2023-12-20T22:37:20;2.33;;;1.30;;
12980;SDS011;6555;50.468;8.480;2023-12-20T22:42:24;1.23;;;0.90;;
12980;SDS011;6555;50.468;8.480;2023-12-20T22:47:28;2.30;;;1.27;;
12980;SDS011;6555;50.468;8.480;2023-12-20T22:52:31;1.97;;;1.10;;
12980;SDS011;6555;50.468;8.480;2023-12-20T22:57:35;3.70;;;1.00;;
12980;SDS011;6555;50.468;8.480;2023-12-20T23:02:38;1.40;;;0.90;;
12980;SDS011;6555;50.468;8.480;2023-12-20T23:07:41;3.50;;;1.33;;
12980;SDS011;6555;50.468;8.480;2023-12-20T23:12:47;2.00;;;1.30;;
12980;SDS011;6555;50.468;8.480;2023-12-20T23:17:50;1.37;;;0.83;;
12980;SDS011;6555;50.468;8.480;2023-12-20T23:22:54;2.50;;;1.20;;
12980;SDS011;6555;50.468;8.480;2023-12-20T23:27:59;1.40;;;0.90;;
12980;SDS011;6555;50.468;8.480;2023-12-20T23:33:02;1.07;;;0.80;;
12980;SDS011;6555;50.468;8.480;2023-12-20T23:38:06;1.20;;;0.90;;
12980;SDS011;6555;50.468;8.480;2023-12-20T23:43:11;1.73;;;1.10;;
12980;SDS011;6555;50.468;8.480;2023-12-20T23:48:14;1.10;;;0.83;;
12980;SDS011;6555;50.468;8.480;2023-12-20T23:53:17;1.20;;;0.80;;
12980;SDS011;6555;50.468;8.480;2023-12-20T23:58:22;0.90;;;0.70;;
